Time;durP1;ratioP1;P1;durP2;ratioP2;P2;SDS_P1;SDS_P2;PMS_P1;PMS_P2;Temp;Humidity;BMP_temperature;BMP_pressure;BME280_temperature;BME280_humidity;BME280_pressure;Samples;Min_cycle;Max_cycle;Signal;HPM_P1;HPM_P2
2021/11/27 00:02:13;;;;;;;37.33;23.77;;;4.90;99.90;;;;;;5034467;28;20024;-91
2021/11/27 00:04:38;;;;;;;33.63;20.40;;;4.90;99.90;;;;;;5035875;28;20405;-92
2021/11/27 00:07:04;;;;;;;20.92;13.70;;;4.90;99.90;;;;;;5017790;28;20064;-91
2021/11/27 00:09:30;;;;;;;19.92;12.00;;;4.90;99.90;;;;;;5031866;28;20029;-91
2021/11/27 00:11:55;;;;;;;15.15;10.00;;;4.80;99.90;;;;;;5033057;28;20019;-92
2021/11/27 00:14:21;;;;;;;12.77;8.45;;;4.70;99.90;;;;;;5032462;28;20565;-92
2021/11/27 00:16:46;;;;;;;13.65;8.43;;;4.60;99.90;;;;;;5031395;28;20029;-91
2021/11/27 00:19:12;;;;;;;11.77;7.45;;;4.60;99.90;;;;;;5036109;28;20017;-91
2021/11/27 00:21:40;;;;;;;8.93;5.60;;;4.50;99.90;;;;;;5029956;28;20025;-93
2021/11/27 00:24:06;;;;;;;9.32;6.00;;;4.50;99.90;;;;;;5029278;28;20095;-92
2021/11/27 00:26:32;;;;;;;9.52;4.90;;;4.50;99.90;;;;;;5032212;28;20049;-92
2021/11/27 00:28:58;;;;;;;6.18;4.30;;;4.50;99.90;;;;;;5022492;28;20442;-91
2021/11/27 00:31:26;;;;;;;8.93;4.10;;;4.50;99.90;;;;;;5031178;28;20124;-92
2021/11/27 00:33:53;;;;;;;8.40;4.97;;;4.40;99.90;;;;;;5025954;28;20032;-90
2021/11/27 00:36:19;;;;;;;8.32;3.72;;;4.40;99.90;;;;;;5027164;28;20025;-90
2021/11/27 00:38:45;;;;;;;7.43;3.78;;;4.30;99.90;;;;;;5033171;28;20072;-90
2021/11/27 00:41:12;;;;;;;5.38;3.10;;;4.20;99.90;;;;;;5034334;28;20091;-92
2021/11/27 00:43:38;;;;;;;6.75;2.85;;;4.20;99.90;;;;;;5033198;28;20140;-90
2021/11/27 00:46:04;;;;;;;3.55;1.95;;;4.10;99.90;;;;;;5031945;28;20433;-91
2021/11/27 00:48:29;;;;;;;5.85;2.28;;;4.10;99.90;;;;;;5030461;28;20032;-90
2021/11/27 00:50:58;;;;;;;4.20;1.92;;;4.00;99.90;;;;;;5029776;28;20021;-91
2021/11/27 00:53:25;;;;;;;3.33;1.50;;;4.00;99.90;;;;;;5031549;28;20116;-93
2021/11/27 00:55:50;;;;;;;4.43;1.38;;;4.00;99.90;;;;;;5044914;28;20041;-91
2021/11/27 00:58:17;;;;;;;5.65;1.33;;;3.90;99.90;;;;;;5034051;28;20033;-91
2021/11/27 01:00:56;;;;;;;6.55;1.30;;;3.90;99.90;;;;;;5048673;28;20048;-91
2021/11/27 01:03:23;;;;;;;3.92;0.65;;;3.90;99.90;;;;;;5049441;28;20029;-92
2021/11/27 01:05:49;;;;;;;3.28;0.60;;;3.80;99.90;;;;;;5033476;28;20025;-92
2021/11/27 01:08:16;;;;;;;3.78;0.50;;;3.70;99.90;;;;;;5027215;28;20524;-92
2021/11/27 01:10:52;;;;;;;4.38;0.50;;;3.60;99.90;;;;;;5054989;28;20061;-92
2021/11/27 01:13:17;;;;;;;3.97;0.70;;;3.60;99.90;;;;;;5048340;28;20540;-92
2021/11/27 01:15:43;;;;;;;4.40;0.60;;;3.60;99.90;;;;;;5033024;28;20040;-92
2021/11/27 01:18:09;;;;;;;4.68;0.60;;;3.60;99.90;;;;;;5038660;28;20057;-92
2021/11/27 01:20:41;;;;;;;1.75;0.60;;;3.50;99.90;;;;;;5038327;28;20071;-91
2021/11/27 01:23:07;;;;;;;4.10;0.52;;;3.40;99.90;;;;;;5054279;28;20029;-93
2021/11/27 01:25:34;;;;;;;2.50;0.45;;;3.40;99.90;;;;;;5039837;28;20370;-92
2021/11/27 01:27:59;;;;;;;2.50;0.55;;;3.30;99.90;;;;;;5033887;28;20035;-92
2021/11/27 01:30:25;;;;;;;1.90;0.40;;;3.20;99.90;;;;;;5038779;28;20020;-94
2021/11/27 01:32:51;;;;;;;1.50;0.40;;;3.20;99.90;;;;;;5037064;28;20040;-94
2021/11/27 01:35:17;;;;;;;2.85;0.50;;;3.20;99.90;;;;;;5039643;28;20056;-94
2021/11/27 01:37:43;;;;;;;2.22;0.40;;;3.10;99.90;;;;;;5035635;28;20059;-94
2021/11/27 01:40:14;;;;;;;1.85;0.30;;;3.10;99.90;;;;;;5038124;28;20040;-95
2021/11/27 01:42:39;;;;;;;2.50;0.30;;;3.10;99.90;;;;;;5038720;28;20045;-93
2021/11/27 01:45:06;;;;;;;4.00;0.30;;;3.00;99.90;;;;;;5032033;28;20037;-94
2021/11/27 01:47:32;;;;;;;1.55;0.40;;;3.00;99.90;;;;;;5020646;28;20037;-94
2021/11/27 01:49:57;;;;;;;6.93;0.70;;;2.90;99.90;;;;;;5036395;28;20030;-93
2021/11/27 01:52:23;;;;;;;5.30;0.70;;;2.90;99.90;;;;;;5034568;28;20033;-94
2021/11/27 01:54:49;;;;;;;2.42;0.77;;;2.90;99.90;;;;;;5033256;28;20544;-93
2021/11/27 01:57:15;;;;;;;3.97;0.88;;;2.80;99.90;;;;;;5034365;28;20371;-93
2021/11/27 01:59:42;;;;;;;3.88;0.57;;;2.80;99.90;;;;;;5027678;28;20445;-93
2021/11/27 02:02:11;;;;;;;6.43;0.80;;;2.80;99.90;;;;;;5033965;28;20033;-94
2021/11/27 02:04:37;;;;;;;4.80;0.68;;;2.80;99.90;;;;;;5032612;28;20030;-93
2021/11/27 02:07:04;;;;;;;4.03;0.70;;;2.80;99.90;;;;;;5033181;28;20049;-94
2021/11/27 02:09:31;;;;;;;4.85;0.80;;;2.80;99.90;;;;;;5032753;28;20120;-94
2021/11/27 02:11:59;;;;;;;2.35;0.50;;;2.80;99.90;;;;;;5032021;28;20029;-92
2021/11/27 02:14:25;;;;;;;3.92;0.47;;;2.80;99.90;;;;;;5034647;28;20037;-94
2021/11/27 02:16:51;;;;;;;6.85;0.85;;;2.70;99.90;;;;;;5030154;28;20033;-95
2021/11/27 02:19:16;;;;;;;3.13;0.40;;;2.80;99.90;;;;;;5038840;28;20033;-93
2021/11/27 02:21:44;;;;;;;6.18;1.10;;;2.70;99.90;;;;;;5033472;28;20030;-94
2021/11/27 02:24:12;;;;;;;5.78;0.40;;;2.70;99.90;;;;;;5034754;28;20075;-94
2021/11/27 02:26:37;;;;;;;2.13;0.40;;;2.70;99.90;;;;;;5034147;28;20036;-94
2021/11/27 02:29:14;;;;;;;6.90;0.50;;;2.70;99.90;;;;;;5031800;28;20393;-93
2021/11/27 02:31:40;;;;;;;2.78;0.30;;;2.70;99.90;;;;;;5030593;28;20029;-94
2021/11/27 02:34:06;;;;;;;2.70;0.50;;;2.60;99.90;;;;;;5023315;28;20048;-94
2021/11/27 02:36:36;;;;;;;5.93;0.40;;;2.50;99.90;;;;;;5028824;28;20470;-95
2021/11/27 02:39:06;;;;;;;3.00;0.40;;;2.50;99.90;;;;;;5028441;28;20025;-94
2021/11/27 02:41:32;;;;;;;2.28;0.40;;;2.50;99.90;;;;;;5033423;28;20036;-95
2021/11/27 02:43:58;;;;;;;1.35;0.30;;;2.50;99.90;;;;;;5046047;28;20128;-94
2021/11/27 02:46:23;;;;;;;4.97;0.47;;;2.50;99.90;;;;;;5054489;28;20102;-95
2021/11/27 02:48:49;;;;;;;5.38;1.10;;;2.50;99.90;;;;;;5032728;28;20029;-94
2021/11/27 02:51:15;;;;;;;2.97;0.40;;;2.40;99.90;;;;;;5052764;28;20032;-94
2021/11/27 02:53:40;;;;;;;2.50;0.43;;;2.40;99.90;;;;;;5054871;28;20041;-94
2021/11/27 02:56:06;;;;;;;3.08;0.40;;;2.40;99.90;;;;;;5035762;28;20028;-94
2021/11/27 02:58:32;;;;;;;3.35;0.40;;;2.30;99.90;;;;;;5035885;28;20024;-95
2021/11/27 03:01:01;;;;;;;1.42;0.50;;;2.30;99.90;;;;;;5036951;28;20029;-94
2021/11/27 03:03:26;;;;;;;1.30;0.30;;;2.30;99.90;;;;;;5044334;28;20091;-94
2021/11/27 03:05:52;;;;;;;1.58;0.20;;;2.20;99.90;;;;;;5052776;28;20032;-95
2021/11/27 03:08:18;;;;;;;2.80;0.30;;;2.20;99.90;;;;;;5038330;28;20025;-94
2021/11/27 03:10:44;;;;;;;0.80;0.20;;;2.20;99.90;;;;;;5044787;28;20092;-94
2021/11/27 03:13:10;;;;;;;3.92;0.38;;;2.10;99.90;;;;;;5035541;28;20377;-94
2021/11/27 03:15:41;;;;;;;0.73;0.30;;;2.10;99.90;;;;;;5034389;28;20040;-94
2021/11/27 03:18:08;;;;;;;8.32;1.38;;;2.10;99.90;;;;;;5032852;28;20033;-94
2021/11/27 03:20:34;;;;;;;1.70;0.52;;;2.10;99.90;;;;;;5040274;28;20025;-94
2021/11/27 03:22:59;;;;;;;4.43;0.70;;;2.10;99.90;;;;;;5028085;28;20074;-94
2021/11/27 03:25:25;;;;;;;4.47;0.70;;;2.10;99.90;;;;;;5033602;28;20119;-94
2021/11/27 03:27:50;;;;;;;1.52;0.40;;;2.10;99.90;;;;;;5052678;28;20039;-94
2021/11/27 03:30:18;;;;;;;1.60;0.30;;;2.10;99.90;;;;;;5036698;28;20031;-94
2021/11/27 03:32:43;;;;;;;4.38;0.30;;;2.10;99.90;;;;;;5036236;28;20033;-95
2021/11/27 03:35:10;;;;;;;2.08;0.20;;;2.00;99.90;;;;;;5043275;28;20029;-94
2021/11/27 03:37:38;;;;;;;3.03;0.40;;;2.00;99.90;;;;;;5045111;28;20508;-95
2021/11/27 03:40:06;;;;;;;2.70;0.50;;;2.00;99.90;;;;;;5036974;28;20029;-95
2021/11/27 03:42:32;;;;;;;3.15;0.35;;;1.90;99.90;;;;;;5032315;28;20046;-95
2021/11/27 03:44:58;;;;;;;2.30;0.50;;;1.90;99.90;;;;;;5027912;28;20029;-95
2021/11/27 03:47:24;;;;;;;2.55;0.45;;;1.90;99.90;;;;;;5033496;28;20029;-95
2021/11/27 03:49:52;;;;;;;2.67;0.40;;;1.90;99.90;;;;;;5032925;28;20029;-95
2021/11/27 03:52:17;;;;;;;1.98;0.30;;;1.90;99.90;;;;;;5035662;28;20017;-95
2021/11/27 03:54:43;;;;;;;2.70;0.28;;;1.90;99.90;;;;;;5032501;28;20378;-96
2021/11/27 03:57:09;;;;;;;1.83;0.30;;;1.90;99.90;;;;;;5029210;28;20022;-95
2021/11/27 03:59:35;;;;;;;2.47;0.30;;;1.90;99.90;;;;;;5031876;28;20393;-96
2021/11/27 04:02:00;;;;;;;0.70;0.20;;;1.90;99.90;;;;;;5029995;28;20032;-95
2021/11/27 04:04:26;;;;;;;1.80;0.63;;;1.90;99.90;;;;;;5030670;28;20020;-95
2021/11/27 04:06:52;;;;;;;0.90;0.30;;;1.90;99.90;;;;;;5034209;28;20080;-95
2021/11/27 04:09:17;;;;;;;1.98;0.30;;;1.80;99.90;;;;;;5034350;28;20152;-95
2021/11/27 04:11:44;;;;;;;1.63;0.30;;;1.90;99.90;;;;;;5029148;28;20044;-95
2021/11/27 04:14:09;;;;;;;2.63;0.50;;;1.90;99.90;;;;;;5031983;28;20057;-95
2021/11/27 04:16:35;;;;;;;1.00;0.20;;;1.90;99.90;;;;;;5028129;28;20037;-95
2021/11/27 04:19:01;;;;;;;1.40;0.30;;;2.00;99.90;;;;;;5021812;28;20033;-95
2021/11/27 04:21:26;;;;;;;2.95;0.63;;;1.90;99.90;;;;;;5031142;28;20082;-96
2021/11/27 04:23:52;;;;;;;3.20;0.20;;;1.90;99.90;;;;;;5025593;28;20047;-93
2021/11/27 04:26:20;;;;;;;5.93;0.40;;;1.80;99.90;;;;;;5032164;28;20022;-93
2021/11/27 04:28:46;;;;;;;3.28;0.30;;;1.80;99.90;;;;;;5032926;28;20477;-95
2021/11/27 04:31:11;;;;;;;3.70;0.38;;;1.80;99.90;;;;;;5031186;28;20033;-93
2021/11/27 04:33:37;;;;;;;1.98;0.17;;;1.80;99.90;;;;;;5037320;28;20029;-93
2021/11/27 04:36:04;;;;;;;5.93;0.80;;;1.80;99.90;;;;;;5030030;28;20128;-92
2021/11/27 04:38:31;;;;;;;1.45;0.22;;;1.80;99.90;;;;;;5044507;28;20026;-93
2021/11/27 04:40:57;;;;;;;3.50;0.30;;;1.80;99.90;;;;;;5029779;28;20029;-92
2021/11/27 04:43:23;;;;;;;2.15;0.35;;;1.80;99.90;;;;;;5026189;28;20405;-93
2021/11/27 04:45:49;;;;;;;0.95;0.28;;;1.80;99.90;;;;;;5016746;28;20048;-93
2021/11/27 04:48:15;;;;;;;0.60;0.20;;;1.80;99.90;;;;;;5015379;28;20048;-92
2021/11/27 04:50:41;;;;;;;0.63;0.20;;;1.80;99.90;;;;;;5010670;28;20130;-91
2021/11/27 04:53:07;;;;;;;0.70;0.30;;;1.70;99.90;;;;;;5011712;28;20076;-92
2021/11/27 04:55:33;;;;;;;0.98;0.28;;;1.70;99.90;;;;;;5013296;28;20029;-94
2021/11/27 04:58:01;;;;;;;1.15;0.20;;;1.60;99.90;;;;;;5028107;28;20061;-94
2021/11/27 05:00:29;;;;;;;1.60;0.20;;;1.60;99.90;;;;;;5025991;28;20030;-94
2021/11/27 05:02:55;;;;;;;0.50;0.20;;;1.50;99.90;;;;;;5018673;28;20033;-94
2021/11/27 05:05:20;;;;;;;0.57;0.20;;;1.50;99.90;;;;;;5039841;28;20101;-93
2021/11/27 05:07:46;;;;;;;1.58;0.30;;;1.50;99.90;;;;;;5021961;28;20029;-94
2021/11/27 05:10:12;;;;;;;1.75;0.22;;;1.40;99.90;;;;;;5023336;28;20434;-95
2021/11/27 05:12:38;;;;;;;2.65;0.30;;;1.40;99.90;;;;;;5023418;28;20069;-94
2021/11/27 05:15:05;;;;;;;1.52;0.20;;;1.40;99.90;;;;;;5027093;28;20057;-94
2021/11/27 05:17:31;;;;;;;1.63;0.30;;;1.30;99.90;;;;;;5029754;28;20131;-94
2021/11/27 05:19:57;;;;;;;1.50;0.32;;;1.30;99.90;;;;;;5030613;28;20053;-94
2021/11/27 05:22:23;;;;;;;2.10;0.28;;;1.30;99.90;;;;;;5009579;28;20119;-93
2021/11/27 05:24:48;;;;;;;1.75;0.30;;;1.30;99.90;;;;;;5017379;28;20363;-95
2021/11/27 05:27:16;;;;;;;2.63;0.50;;;1.30;99.90;;;;;;5008356;28;20502;-94
2021/11/27 05:29:42;;;;;;;2.33;0.68;;;1.30;99.90;;;;;;5004941;28;20033;-95
2021/11/27 05:32:20;;;;;;;1.30;0.50;;;1.30;99.90;;;;;;5008063;28;20025;-94
2021/11/27 05:34:45;;;;;;;2.15;0.57;;;1.30;99.90;;;;;;5012180;28;20046;-94
2021/11/27 05:37:11;;;;;;;1.70;0.50;;;1.30;99.90;;;;;;5014419;28;20069;-93
2021/11/27 05:39:37;;;;;;;3.05;0.50;;;1.30;99.90;;;;;;5015283;28;20037;-94
2021/11/27 05:42:03;;;;;;;6.38;0.70;;;1.30;99.90;;;;;;5004650;28;20037;-93
2021/11/27 05:44:28;;;;;;;3.60;0.60;;;1.30;99.90;;;;;;5052639;28;20040;-94
2021/11/27 05:46:54;;;;;;;6.50;0.70;;;1.30;99.90;;;;;;5039561;28;20124;-93
2021/11/27 05:49:19;;;;;;;3.30;0.60;;;1.30;99.90;;;;;;5035251;28;20067;-94
2021/11/27 05:51:45;;;;;;;5.57;0.50;;;1.30;99.90;;;;;;5047063;28;20499;-95
2021/11/27 05:54:11;;;;;;;3.65;0.70;;;1.30;99.90;;;;;;5033677;28;20056;-94
2021/11/27 05:56:36;;;;;;;3.63;0.55;;;1.30;99.90;;;;;;5039424;28;20111;-95
2021/11/27 05:59:02;;;;;;;3.80;0.63;;;1.40;99.90;;;;;;5036834;28;20021;-94
2021/11/27 06:01:27;;;;;;;3.20;0.93;;;1.40;99.90;;;;;;5031867;28;20029;-94
2021/11/27 06:03:53;;;;;;;2.47;0.85;;;1.40;99.90;;;;;;5058966;28;20088;-93
2021/11/27 06:06:19;;;;;;;6.90;0.80;;;1.40;99.90;;;;;;5050189;28;20029;-94
2021/11/27 06:08:44;;;;;;;3.67;0.88;;;1.40;99.90;;;;;;5056918;28;20033;-94
2021/11/27 06:11:10;;;;;;;5.93;0.93;;;1.40;99.90;;;;;;5036236;28;20032;-95
2021/11/27 06:13:35;;;;;;;5.85;0.85;;;1.50;99.90;;;;;;5035247;28;20029;-94
2021/11/27 06:16:06;;;;;;;5.43;1.05;;;1.50;99.90;;;;;;5039096;28;20038;-94
2021/11/27 06:18:35;;;;;;;4.97;0.98;;;1.50;99.90;;;;;;5034892;28;20022;-94
2021/11/27 06:21:01;;;;;;;4.30;1.00;;;1.50;99.90;;;;;;5029806;28;20028;-95
2021/11/27 06:23:28;;;;;;;2.70;0.93;;;1.50;99.90;;;;;;5025631;28;20040;-94
2021/11/27 06:25:54;;;;;;;5.60;1.10;;;1.50;99.90;;;;;;5037000;28;20040;-94
2021/11/27 06:28:20;;;;;;;6.07;0.90;;;1.50;99.90;;;;;;5035782;28;20040;-94
2021/11/27 06:30:46;;;;;;;4.55;0.95;;;1.60;99.90;;;;;;5046053;28;20036;-95
2021/11/27 06:33:12;;;;;;;5.78;1.05;;;1.60;99.90;;;;;;5044734;28;20002;-93
2021/11/27 06:35:37;;;;;;;6.00;1.80;;;1.60;99.90;;;;;;5053180;28;20047;-94
2021/11/27 06:38:03;;;;;;;4.35;1.60;;;1.60;99.90;;;;;;5055746;28;20045;-94
2021/11/27 06:40:28;;;;;;;5.22;1.67;;;1.60;99.90;;;;;;5036099;28;20029;-95
2021/11/27 06:42:55;;;;;;;5.57;1.52;;;1.60;99.90;;;;;;5038525;28;20071;-96
2021/11/27 06:45:22;;;;;;;4.75;1.92;;;1.60;99.90;;;;;;5036344;28;20021;-94
2021/11/27 06:47:48;;;;;;;6.05;1.90;;;1.60;99.90;;;;;;5024496;28;20104;-94
2021/11/27 06:50:14;;;;;;;4.80;2.00;;;1.60;99.90;;;;;;5031090;28;20025;-94
2021/11/27 06:52:39;;;;;;;7.22;2.10;;;1.60;99.90;;;;;;5031506;28;20018;-92
2021/11/27 06:55:06;;;;;;;6.78;2.25;;;1.70;99.90;;;;;;5039666;28;20029;-94
2021/11/27 06:57:31;;;;;;;6.85;2.22;;;1.70;99.90;;;;;;5037417;28;20043;-93
2021/11/27 06:59:57;;;;;;;10.60;2.40;;;1.70;99.90;;;;;;5057944;28;20112;-94
2021/11/27 07:02:22;;;;;;;6.00;2.53;;;1.80;99.90;;;;;;5035040;28;20021;-95
2021/11/27 07:04:48;;;;;;;6.45;2.80;;;1.80;99.90;;;;;;5032793;28;20033;-92
2021/11/27 07:07:13;;;;;;;7.97;3.17;;;1.80;99.90;;;;;;5022887;28;20018;-95
2021/11/27 07:09:39;;;;;;;7.05;3.20;;;1.90;99.90;;;;;;5036068;28;20586;-93
2021/11/27 07:12:05;;;;;;;7.70;3.83;;;1.90;99.90;;;;;;5031696;28;20018;-94
2021/11/27 07:14:30;;;;;;;7.00;3.55;;;1.90;99.90;;;;;;5035254;28;20483;-93
2021/11/27 07:16:56;;;;;;;10.63;4.57;;;1.90;99.90;;;;;;5040383;28;20017;-92
2021/11/27 07:19:21;;;;;;;9.23;4.18;;;2.00;99.90;;;;;;5034898;28;20033;-92
2021/11/27 07:21:47;;;;;;;12.10;4.95;;;2.00;99.90;;;;;;5038954;28;20021;-92
2021/11/27 07:24:13;;;;;;;9.02;4.07;;;2.00;99.90;;;;;;5038064;28;20033;-92
2021/11/27 07:26:38;;;;;;;7.30;3.15;;;2.10;99.90;;;;;;5036843;28;20096;-91
2021/11/27 07:29:05;;;;;;;6.90;3.90;;;2.10;99.90;;;;;;5035834;28;20116;-92
2021/11/27 07:31:30;;;;;;;10.65;3.40;;;2.20;99.90;;;;;;5026453;28;20067;-92
2021/11/27 07:33:56;;;;;;;9.00;3.53;;;2.20;99.90;;;;;;5034222;28;20029;-92
2021/11/27 07:36:22;;;;;;;8.10;3.03;;;2.30;99.90;;;;;;5029473;28;20025;-91
2021/11/27 07:38:47;;;;;;;7.90;3.83;;;2.30;99.90;;;;;;5039502;28;20496;-93
2021/11/27 07:41:13;;;;;;;8.05;3.70;;;2.40;99.90;;;;;;5054221;28;20036;-93
2021/11/27 07:43:38;;;;;;;8.13;3.67;;;2.40;99.90;;;;;;5019395;28;20049;-91
2021/11/27 07:46:04;;;;;;;11.73;3.88;;;2.40;99.90;;;;;;5024646;28;20097;-91
2021/11/27 07:48:33;;;;;;;8.82;3.63;;;2.50;99.90;;;;;;5035426;28;20036;-90
2021/11/27 07:51:00;;;;;;;9.45;3.90;;;2.50;99.90;;;;;;5025619;28;20022;-92
2021/11/27 07:53:26;;;;;;;9.57;3.95;;;2.60;99.90;;;;;;5031454;28;20100;-91
2021/11/27 07:55:51;;;;;;;9.85;4.97;;;2.60;99.90;;;;;;5021564;28;20545;-92
2021/11/27 07:58:17;;;;;;;11.60;5.22;;;2.70;99.90;;;;;;5036645;28;20505;-90
2021/11/27 08:00:43;;;;;;;11.57;4.45;;;2.70;99.90;;;;;;5030897;28;20068;-91
2021/11/27 08:03:08;;;;;;;13.63;5.28;;;2.70;99.90;;;;;;5031253;28;20029;-91
2021/11/27 08:05:34;;;;;;;8.95;4.57;;;2.80;99.90;;;;;;5027993;28;20036;-91
2021/11/27 08:07:59;;;;;;;11.95;5.10;;;2.80;99.90;;;;;;5028245;28;20025;-90
2021/11/27 08:10:25;;;;;;;12.70;5.68;;;2.80;99.90;;;;;;5031291;28;20029;-89
2021/11/27 08:12:50;;;;;;;12.63;6.15;;;2.80;99.90;;;;;;5033041;28;20032;-91
2021/11/27 08:15:16;;;;;;;14.85;5.88;;;2.80;99.90;;;;;;5032774;28;20036;-92
2021/11/27 08:17:41;;;;;;;15.52;5.68;;;2.80;99.90;;;;;;5029374;28;20050;-91
2021/11/27 08:20:09;;;;;;;13.63;5.60;;;2.80;99.90;;;;;;5029395;28;20022;-91
2021/11/27 08:22:35;;;;;;;11.02;4.53;;;2.80;99.90;;;;;;5021041;28;20107;-91
2021/11/27 08:25:00;;;;;;;10.85;4.30;;;2.90;99.90;;;;;;5034438;28;20034;-91
2021/11/27 08:27:29;;;;;;;11.48;4.43;;;2.90;99.90;;;;;;5036188;28;20029;-91
2021/11/27 08:29:55;;;;;;;9.30;3.95;;;2.90;99.90;;;;;;5034925;28;20075;-88
2021/11/27 08:32:21;;;;;;;9.68;3.50;;;2.90;99.90;;;;;;5025424;28;20037;-91
2021/11/27 08:34:47;;;;;;;9.85;4.05;;;3.00;99.90;;;;;;5024532;28;20083;-92
2021/11/27 08:37:13;;;;;;;6.47;3.63;;;3.00;99.90;;;;;;5030928;28;20076;-92
2021/11/27 08:39:39;;;;;;;14.73;5.03;;;3.10;99.90;;;;;;5031959;28;20032;-91
2021/11/27 08:42:04;;;;;;;13.13;6.43;;;3.10;99.90;;;;;;5032566;28;20120;-92
2021/11/27 08:44:30;;;;;;;15.00;6.10;;;3.10;99.90;;;;;;5035079;28;20033;-92
2021/11/27 08:46:56;;;;;;;16.00;6.75;;;3.20;99.90;;;;;;5035834;28;20477;-92
2021/11/27 08:49:21;;;;;;;17.33;6.75;;;3.20;99.90;;;;;;5031835;28;20025;-91
2021/11/27 08:51:47;;;;;;;13.85;6.63;;;3.20;99.90;;;;;;5034955;28;20116;-92
2021/11/27 08:54:13;;;;;;;13.70;6.72;;;3.30;99.90;;;;;;5032661;28;20399;-90
2021/11/27 08:56:39;;;;;;;12.60;6.43;;;3.30;99.90;;;;;;5034569;28;20036;-91
2021/11/27 08:59:05;;;;;;;8.05;3.92;;;3.30;99.90;;;;;;5032977;28;20024;-91
2021/11/27 09:01:30;;;;;;;7.97;2.90;;;3.30;99.90;;;;;;5033360;28;20029;-93
2021/11/27 09:03:56;;;;;;;8.02;1.90;;;3.40;99.90;;;;;;5036024;28;20037;-92
2021/11/27 09:06:24;;;;;;;6.22;1.58;;;3.30;99.90;;;;;;5036486;28;20075;-91
2021/11/27 09:08:51;;;;;;;4.00;1.17;;;3.30;99.90;;;;;;5035547;28;20043;-92
2021/11/27 09:11:19;;;;;;;3.38;0.70;;;3.30;99.90;;;;;;5032887;28;20029;-91
2021/11/27 09:13:46;;;;;;;2.47;0.60;;;3.20;99.90;;;;;;5049364;28;20052;-92
2021/11/27 09:16:11;;;;;;;4.80;0.80;;;3.20;99.90;;;;;;5035019;28;20234;-90
2021/11/27 09:18:37;;;;;;;5.43;0.75;;;3.10;99.90;;;;;;5032005;28;20085;-91
2021/11/27 09:21:03;;;;;;;3.95;0.90;;;3.10;99.90;;;;;;5034318;28;20025;-92
2021/11/27 09:23:29;;;;;;;4.18;1.35;;;3.00;99.90;;;;;;5033146;28;20063;-92
2021/11/27 09:25:55;;;;;;;3.90;1.00;;;3.00;99.90;;;;;;5043115;28;20029;-91
2021/11/27 09:28:21;;;;;;;5.60;1.23;;;3.00;99.90;;;;;;5018628;28;20021;-92
2021/11/27 09:30:47;;;;;;;5.00;1.23;;;3.00;99.90;;;;;;5037356;28;20531;-93
2021/11/27 09:33:13;;;;;;;8.35;1.27;;;3.00;99.90;;;;;;5054537;28;20025;-89
2021/11/27 09:35:39;;;;;;;16.73;4.60;;;3.00;99.90;;;;;;5053351;28;20048;-89
2021/11/27 09:38:04;;;;;;;85.45;23.15;;;3.10;99.90;;;;;;5045109;28;20021;-91
2021/11/27 09:40:37;;;;;;;114.63;34.85;;;3.20;99.90;;;;;;5032080;28;20028;-90
2021/11/27 09:43:04;;;;;;;118.57;36.15;;;3.30;99.90;;;;;;5028413;28;20037;-92
2021/11/27 09:45:31;;;;;;;108.88;36.75;;;3.40;99.90;;;;;;5029223;28;20033;-92
2021/11/27 09:47:56;;;;;;;123.70;37.85;;;3.50;99.90;;;;;;5050799;28;20025;-92
2021/11/27 09:50:24;;;;;;;107.43;34.83;;;3.50;99.90;;;;;;5051702;28;20484;-91
2021/11/27 09:52:52;;;;;;;107.10;35.80;;;3.60;99.90;;;;;;5021789;28;20017;-93
2021/11/27 09:55:19;;;;;;;104.25;35.00;;;3.60;99.90;;;;;;5039997;28;20030;-90
2021/11/27 09:57:46;;;;;;;112.47;35.67;;;3.60;99.90;;;;;;5034013;28;20443;-90
2021/11/27 10:00:14;;;;;;;111.40;37.00;;;3.60;99.90;;;;;;5053769;28;20028;-90
2021/11/27 10:02:42;;;;;;;114.53;35.70;;;3.70;99.90;;;;;;5055259;28;20029;-90
2021/11/27 10:05:11;;;;;;;108.53;37.13;;;3.80;99.90;;;;;;5036089;28;20029;-90
2021/11/27 10:07:38;;;;;;;97.38;33.85;;;3.80;99.90;;;;;;5037925;28;20163;-90
2021/11/27 10:10:05;;;;;;;102.32;35.58;;;3.80;99.90;;;;;;5037461;28;20174;-90
2021/11/27 10:12:30;;;;;;;102.18;35.00;;;3.80;99.90;;;;;;5040823;28;20032;-93
2021/11/27 10:14:56;;;;;;;106.15;35.97;;;3.90;99.90;;;;;;5036188;28;20037;-91
2021/11/27 10:17:22;;;;;;;93.43;34.92;;;3.90;99.90;;;;;;5035695;28;20033;-89
2021/11/27 10:19:53;;;;;;;89.03;34.55;;;3.90;99.90;;;;;;5020383;28;20367;-92
2021/11/27 10:22:24;;;;;;;95.80;36.13;;;3.90;99.90;;;;;;5029930;28;20023;-90
2021/11/27 10:24:55;;;;;;;88.65;35.67;;;3.90;99.90;;;;;;5035291;28;20053;-89
2021/11/27 10:27:27;;;;;;;94.05;35.28;;;3.90;99.90;;;;;;5038257;28;20029;-90
2021/11/27 10:29:59;;;;;;;93.75;36.72;;;3.90;99.90;;;;;;5039161;28;20029;-91
2021/11/27 10:32:39;;;;;;;91.17;36.93;;;3.90;99.90;;;;;;5044556;28;20108;-90
2021/11/27 10:35:08;;;;;;;91.30;36.17;;;3.90;99.90;;;;;;5029371;28;20095;-90
2021/11/27 10:37:39;;;;;;;86.28;36.83;;;4.00;99.90;;;;;;5045058;28;20469;-89
2021/11/27 10:40:09;;;;;;;85.25;38.47;;;4.00;99.90;;;;;;5036051;28;20067;-90
2021/11/27 10:42:36;;;;;;;94.57;40.10;;;4.00;99.90;;;;;;5027884;28;20049;-92
2021/11/27 10:45:16;;;;;;;89.32;39.88;;;4.10;99.90;;;;;;5036591;28;20033;-89
2021/11/27 10:47:43;;;;;;;88.95;41.42;;;4.10;99.90;;;;;;5044005;28;20021;-89
2021/11/27 10:50:10;;;;;;;86.50;39.38;;;4.10;99.90;;;;;;5055355;28;20021;-89
2021/11/27 10:52:39;;;;;;;91.18;40.95;;;4.10;99.90;;;;;;5035064;28;20029;-88
2021/11/27 10:55:23;;;;;;;91.43;42.70;;;4.10;99.90;;;;;;5033931;28;20127;-90
2021/11/27 10:57:52;;;;;;;82.65;38.13;;;4.20;99.90;;;;;;5033924;28;20043;-90
2021/11/27 11:00:48;;;;;;;75.25;36.63;;;4.20;99.90;;;;;;5029236;28;20142;-90
2021/11/27 11:03:25;;;;;;;74.97;35.58;;;4.20;99.90;;;;;;5028412;28;20382;-89
2021/11/27 11:05:51;;;;;;;71.95;33.50;;;4.20;99.90;;;;;;5033959;28;20033;-89
2021/11/27 11:08:36;;;;;;;74.43;33.35;;;4.30;99.90;;;;;;5033827;28;20026;-90
2021/11/27 11:11:25;;;;;;;54.72;27.17;;;4.30;99.90;;;;;;5034640;28;20027;-89
2021/11/27 11:13:54;;;;;;;57.85;26.45;;;4.40;99.90;;;;;;5023680;28;20032;-88
2021/11/27 11:16:26;;;;;;;54.72;24.20;;;4.50;99.90;;;;;;5020899;28;20033;-88
2021/11/27 11:19:09;;;;;;;52.58;24.25;;;4.50;99.90;;;;;;5031528;28;20025;-88
2021/11/27 11:21:35;;;;;;;51.33;22.52;;;4.60;99.90;;;;;;5021382;28;20038;-88
2021/11/27 11:24:20;;;;;;;52.35;21.33;;;4.70;99.90;;;;;;5026387;28;20051;-88
2021/11/27 11:26:54;;;;;;;46.95;20.95;;;4.80;99.90;;;;;;5048082;28;20025;-88
2021/11/27 11:29:20;;;;;;;52.90;20.52;;;4.80;99.90;;;;;;5030463;28;20025;-89
2021/11/27 11:31:45;;;;;;;43.35;20.25;;;4.90;99.90;;;;;;5035884;28;20035;-88
2021/11/27 11:34:11;;;;;;;40.90;18.17;;;4.90;99.90;;;;;;5037125;28;20024;-88
2021/11/27 11:36:37;;;;;;;47.95;19.10;;;5.10;99.90;;;;;;5034930;28;20041;-89
2021/11/27 11:39:03;;;;;;;44.85;17.20;;;5.10;99.90;;;;;;5025504;28;20092;-88
2021/11/27 11:41:29;;;;;;;33.28;16.90;;;5.30;99.90;;;;;;5032540;28;20067;-88
2021/11/27 11:43:56;;;;;;;35.58;16.02;;;5.50;99.90;;;;;;5023091;28;20092;-89
2021/11/27 11:46:23;;;;;;;34.53;15.70;;;5.50;99.90;;;;;;5034290;28;20029;-88
2021/11/27 11:48:54;;;;;;;34.58;14.70;;;5.50;99.90;;;;;;5038353;28;20536;-87
2021/11/27 11:51:50;;;;;;;26.73;13.02;;;5.50;99.90;;;;;;5038692;28;20449;-88
2021/11/27 11:54:17;;;;;;;36.28;13.77;;;5.50;99.90;;;;;;5034207;28;20036;-88
2021/11/27 11:56:44;;;;;;;33.13;12.70;;;5.50;99.90;;;;;;5049997;28;20021;-87
2021/11/27 11:59:27;;;;;;;25.00;11.32;;;5.50;99.90;;;;;;5036052;28;20032;-88
2021/11/27 12:02:23;;;;;;;23.80;11.65;;;5.70;99.90;;;;;;5035825;28;20071;-87
2021/11/27 12:05:21;;;;;;;25.52;10.25;;;5.70;99.90;;;;;;5051031;28;20033;-88
2021/11/27 12:07:50;;;;;;;20.83;8.68;;;5.60;99.90;;;;;;5039240;28;20025;-88
2021/11/27 12:10:21;;;;;;;24.70;7.65;;;5.60;99.90;;;;;;5035577;28;20036;-87
2021/11/27 12:13:05;;;;;;;22.27;8.15;;;5.50;99.90;;;;;;5035851;28;20025;-88
2021/11/27 12:15:36;;;;;;;21.55;7.68;;;5.40;99.90;;;;;;5033717;28;20034;-88
2021/11/27 12:18:14;;;;;;;21.70;8.60;;;5.40;99.90;;;;;;5033602;28;20027;-87
2021/11/27 12:20:42;;;;;;;21.48;7.47;;;5.20;99.90;;;;;;5049864;28;20017;-88
2021/11/27 12:23:31;;;;;;;20.95;8.07;;;5.20;99.90;;;;;;5050421;28;20088;-87
2021/11/27 12:26:14;;;;;;;21.73;8.45;;;5.20;99.90;;;;;;5035580;28;20028;-86
2021/11/27 12:29:06;;;;;;;20.65;8.50;;;5.20;99.90;;;;;;5057291;28;20029;-89
2021/11/27 12:31:51;;;;;;;25.48;9.45;;;5.20;99.90;;;;;;5047228;28;20529;-87
2021/11/27 12:34:37;;;;;;;19.38;8.23;;;5.10;99.90;;;;;;5032528;28;20032;-87
2021/11/27 12:37:22;;;;;;;22.25;8.63;;;5.20;99.90;;;;;;5025509;28;20052;-85
2021/11/27 12:39:48;;;;;;;28.58;9.40;;;5.20;99.90;;;;;;5030905;28;20385;-87
2021/11/27 12:42:19;;;;;;;20.95;8.65;;;5.30;99.90;;;;;;5034414;28;20029;-86
2021/11/27 12:44:51;;;;;;;19.98;7.75;;;5.30;99.90;;;;;;5022140;28;20489;-87
2021/11/27 12:47:16;;;;;;;26.38;9.73;;;5.40;99.90;;;;;;5026446;28;20029;-86
2021/11/27 12:49:45;;;;;;;25.73;9.80;;;5.40;99.90;;;;;;5033867;28;20036;-86
2021/11/27 12:52:14;;;;;;;23.85;9.82;;;5.40;99.90;;;;;;5028287;28;20036;-87
2021/11/27 12:54:45;;;;;;;21.63;9.13;;;5.40;99.90;;;;;;5032718;28;20326;-86